Time;durP1;ratioP1;P1;durP2;ratioP2;P2;SDS_P1;SDS_P2;PMS_P1;PMS_P2;Temp;Humidity;BMP_temperature;BMP_pressure;BME280_temperature;BME280_humidity;BME280_pressure;Samples;Min_cycle;Max_cycle;Signal;HPM_P1;HPM_P2
2023/06/19 00:00:12;;;;;;;5.10;4.50;;;24.90;56.40;;;;;;5093419;28;20483;-67
2023/06/19 00:02:39;;;;;;;5.40;4.87;;;24.80;56.20;;;;;;5094479;28;20503;-66
2023/06/19 00:05:07;;;;;;;5.47;5.07;;;24.80;56.30;;;;;;5094435;28;20452;-67
2023/06/19 00:07:35;;;;;;;6.43;5.87;;;24.80;56.70;;;;;;5094335;28;20448;-67
2023/06/19 00:10:02;;;;;;;6.50;5.03;;;24.70;56.60;;;;;;5093912;28;20936;-67
2023/06/19 00:12:28;;;;;;;5.30;4.80;;;24.70;56.60;;;;;;5093977;28;20463;-66
2023/06/19 00:14:55;;;;;;;5.30;4.80;;;24.70;57.00;;;;;;5093837;28;20960;-67
2023/06/19 00:17:26;;;;;;;4.93;4.37;;;24.70;57.00;;;;;;5093864;28;20451;-67
2023/06/19 00:19:52;;;;;;;5.83;4.80;;;24.70;57.10;;;;;;5094220;28;20464;-67
2023/06/19 00:22:19;;;;;;;5.60;5.10;;;24.70;57.50;;;;;;5093891;28;20468;-67
2023/06/19 00:24:47;;;;;;;5.03;4.73;;;24.60;57.60;;;;;;5094136;28;20456;-67
2023/06/19 00:27:14;;;;;;;5.77;5.37;;;24.60;57.50;;;;;;5093594;28;20447;-67
2023/06/19 00:29:40;;;;;;;5.43;4.93;;;24.60;57.70;;;;;;5093887;28;20448;-67
2023/06/19 00:32:08;;;;;;;5.77;5.37;;;24.50;58.10;;;;;;5094010;28;20470;-67
2023/06/19 00:34:36;;;;;;;6.13;5.30;;;24.50;57.90;;;;;;5093995;28;20444;-67
2023/06/19 00:37:03;;;;;;;5.30;4.90;;;24.50;58.20;;;;;;5092328;28;20444;-67
2023/06/19 00:39:30;;;;;;;6.13;5.53;;;24.40;58.30;;;;;;5093708;28;20444;-66
2023/06/19 00:41:58;;;;;;;9.90;5.50;;;24.40;58.10;;;;;;5093690;28;20495;-67
2023/06/19 00:44:25;;;;;;;5.73;5.33;;;24.40;58.70;;;;;;5093708;28;20452;-67
2023/06/19 00:46:56;;;;;;;5.40;4.90;;;24.30;58.30;;;;;;5093748;28;20447;-67
2023/06/19 00:49:23;;;;;;;5.20;4.73;;;24.30;58.40;;;;;;5093577;28;20428;-67
2023/06/19 00:51:50;;;;;;;6.33;5.30;;;24.20;58.60;;;;;;5095763;28;20464;-67
2023/06/19 00:54:17;;;;;;;6.17;5.60;;;24.20;58.70;;;;;;5095250;28;20452;-66
2023/06/19 00:56:45;;;;;;;6.63;4.77;;;24.10;59.00;;;;;;5097721;28;20473;-67
2023/06/19 00:59:16;;;;;;;5.40;4.87;;;24.10;59.20;;;;;;5097371;28;20462;-67
2023/06/19 01:01:43;;;;;;;5.90;5.40;;;24.10;59.20;;;;;;5096155;28;20467;-66
2023/06/19 01:04:10;;;;;;;5.33;4.93;;;24.10;59.00;;;;;;5094269;28;20440;-67
2023/06/19 01:06:44;;;;;;;5.87;4.93;;;24.00;59.20;;;;;;5093191;28;20874;-67
2023/06/19 01:09:16;;;;;;;4.90;4.50;;;24.00;59.40;;;;;;5093758;28;20435;-67
2023/06/19 01:11:46;;;;;;;5.43;4.93;;;24.00;59.10;;;;;;5093623;28;20428;-66
2023/06/19 01:14:19;;;;;;;5.50;5.07;;;24.00;59.00;;;;;;5094005;28;20436;-67
2023/06/19 01:16:46;;;;;;;8.00;5.93;;;24.00;59.30;;;;;;5093649;28;20515;-66
2023/06/19 01:19:18;;;;;;;11.20;6.03;;;24.00;59.50;;;;;;5093101;28;20513;-66
2023/06/19 01:21:46;;;;;;;5.97;5.47;;;24.10;58.80;;;;;;5093188;28;20464;-66
2023/06/19 01:24:14;;;;;;;6.77;6.20;;;24.10;58.90;;;;;;5093580;28;20440;-66
2023/06/19 01:26:41;;;;;;;6.03;5.43;;;24.00;58.90;;;;;;5093561;28;20444;-67
2023/06/19 01:29:09;;;;;;;6.23;5.73;;;24.00;59.00;;;;;;5092106;28;20452;-67
2023/06/19 01:31:43;;;;;;;6.40;5.80;;;24.00;59.00;;;;;;5094427;28;20483;-67
2023/06/19 01:34:12;;;;;;;5.90;5.40;;;24.00;59.20;;;;;;5096672;28;20481;-67
2023/06/19 01:36:39;;;;;;;6.43;5.83;;;24.00;59.20;;;;;;5093971;28;20448;-67
2023/06/19 01:39:07;;;;;;;9.33;6.80;;;24.00;59.40;;;;;;5093515;28;20446;-67
2023/06/19 01:41:36;;;;;;;6.80;6.30;;;24.00;59.50;;;;;;5092676;28;20900;-67
2023/06/19 01:44:03;;;;;;;8.43;6.17;;;24.00;59.40;;;;;;5093070;28;20809;-67
2023/06/19 01:46:30;;;;;;;6.60;5.70;;;23.90;59.50;;;;;;5093443;28;20444;-67
2023/06/19 01:48:57;;;;;;;7.13;5.70;;;24.00;59.80;;;;;;5094143;28;20474;-67
2023/06/19 01:51:24;;;;;;;7.00;6.27;;;23.90;59.80;;;;;;5096570;28;20947;-67
2023/06/19 01:53:51;;;;;;;6.27;5.40;;;23.90;60.00;;;;;;5096711;28;20468;-66
2023/06/19 01:56:18;;;;;;;6.77;5.50;;;23.90;59.90;;;;;;5096586;28;20448;-67
2023/06/19 01:58:46;;;;;;;6.03;5.53;;;23.90;61.30;;;;;;5096891;28;20440;-67
2023/06/19 02:01:12;;;;;;;6.70;6.00;;;23.90;61.90;;;;;;5096400;28;20475;-67
2023/06/19 02:03:39;;;;;;;10.47;7.10;;;23.90;62.60;;;;;;5096458;28;20472;-66
2023/06/19 02:06:07;;;;;;;5.73;5.23;;;23.80;62.80;;;;;;5096463;28;20500;-67
2023/06/19 02:08:33;;;;;;;5.93;5.33;;;23.80;62.10;;;;;;5096551;28;20481;-67
2023/06/19 02:11:00;;;;;;;5.87;5.13;;;23.70;60.40;;;;;;5096018;28;20821;-66
2023/06/19 02:13:27;;;;;;;7.00;5.13;;;23.70;60.10;;;;;;5096372;28;20467;-67
2023/06/19 02:15:55;;;;;;;5.13;4.67;;;23.70;59.70;;;;;;5096048;28;20450;-67
2023/06/19 02:18:21;;;;;;;7.03;4.80;;;23.60;59.80;;;;;;5096108;28;20467;-67
2023/06/19 02:20:48;;;;;;;4.87;4.47;;;23.60;59.80;;;;;;5096218;28;20488;-66
2023/06/19 02:23:15;;;;;;;5.03;4.53;;;23.50;59.60;;;;;;5096259;28;20470;-66
2023/06/19 02:25:41;;;;;;;4.53;4.17;;;23.50;59.70;;;;;;5096267;28;20439;-67
2023/06/19 02:28:08;;;;;;;4.53;4.13;;;23.40;59.80;;;;;;5096239;28;20455;-67
2023/06/19 02:30:35;;;;;;;5.10;4.60;;;23.30;60.40;;;;;;5096295;28;20447;-67
2023/06/19 02:33:03;;;;;;;4.37;3.97;;;23.30;60.90;;;;;;5095874;28;20472;-66
2023/06/19 02:35:30;;;;;;;4.03;3.63;;;23.20;60.90;;;;;;5096002;28;20869;-66
2023/06/19 02:37:57;;;;;;;4.77;4.40;;;23.10;61.00;;;;;;5095383;28;20451;-67
2023/06/19 02:40:24;;;;;;;4.57;4.17;;;23.10;61.90;;;;;;5095772;28;20497;-67
2023/06/19 02:42:51;;;;;;;6.67;4.23;;;23.00;62.40;;;;;;5095757;28;20513;-67
2023/06/19 02:45:17;;;;;;;3.60;3.33;;;23.00;62.60;;;;;;5095786;28;20451;-66
2023/06/19 02:47:44;;;;;;;4.70;4.30;;;23.00;63.40;;;;;;5095597;28;20456;-66
2023/06/19 02:50:12;;;;;;;6.80;4.93;;;23.00;63.50;;;;;;5095892;28;20452;-66
2023/06/19 02:52:39;;;;;;;5.20;3.97;;;22.80;63.90;;;;;;5095499;28;20459;-67
2023/06/19 02:55:07;;;;;;;4.30;3.90;;;22.90;64.40;;;;;;5095665;28;20477;-67
2023/06/19 02:57:34;;;;;;;4.13;3.67;;;22.80;64.50;;;;;;5094640;28;20452;-66
2023/06/19 03:00:00;;;;;;;4.20;3.80;;;22.80;65.60;;;;;;5095239;28;20440;-67
2023/06/19 03:02:27;;;;;;;4.43;3.97;;;22.80;65.40;;;;;;5095016;28;20483;-67
2023/06/19 03:04:54;;;;;;;4.70;3.93;;;22.70;65.50;;;;;;5095526;28;20444;-67
2023/06/19 03:07:22;;;;;;;4.47;4.03;;;22.60;65.80;;;;;;5095327;28;20483;-67
2023/06/19 03:09:49;;;;;;;5.37;4.60;;;22.60;66.40;;;;;;5095076;28;20867;-66
2023/06/19 03:12:16;;;;;;;4.93;4.50;;;22.50;66.90;;;;;;5095193;28;20471;-65
2023/06/19 03:14:42;;;;;;;4.40;3.50;;;22.50;67.30;;;;;;5095127;28;20451;-66
2023/06/19 03:17:09;;;;;;;5.30;3.93;;;22.50;67.70;;;;;;5095278;28;20489;-66
2023/06/19 03:19:36;;;;;;;5.43;4.90;;;22.50;67.70;;;;;;5096907;28;20460;-66
2023/06/19 03:22:03;;;;;;;4.73;4.20;;;22.40;67.90;;;;;;5098771;28;20486;-66
2023/06/19 03:24:31;;;;;;;4.57;4.17;;;22.30;68.40;;;;;;5098067;28;20452;-66
2023/06/19 03:26:58;;;;;;;4.10;3.80;;;22.30;69.20;;;;;;5098235;28;20864;-67
2023/06/19 03:29:24;;;;;;;6.93;3.43;;;22.20;70.20;;;;;;5097053;28;20443;-66
2023/06/19 03:31:51;;;;;;;3.77;3.30;;;22.10;70.70;;;;;;5095332;28;20479;-66
2023/06/19 03:34:18;;;;;;;8.57;3.57;;;22.10;71.50;;;;;;5095137;28;20458;-66
2023/06/19 03:36:45;;;;;;;6.60;3.13;;;22.00;72.10;;;;;;5095003;28;20450;-67
2023/06/19 03:39:11;;;;;;;4.30;3.90;;;21.90;72.90;;;;;;5095118;28;20444;-67
2023/06/19 03:41:39;;;;;;;5.17;3.80;;;21.90;73.40;;;;;;5095086;28;20479;-66
2023/06/19 03:44:06;;;;;;;4.03;3.27;;;21.80;73.90;;;;;;5094882;28;20454;-67
2023/06/19 03:46:33;;;;;;;4.13;3.83;;;21.80;74.40;;;;;;5094758;28;20542;-67
2023/06/19 03:49:00;;;;;;;3.70;3.40;;;21.80;75.00;;;;;;5094836;28;20448;-66
2023/06/19 03:51:29;;;;;;;3.77;3.47;;;21.80;75.10;;;;;;5095246;28;20440;-66
2023/06/19 03:53:55;;;;;;;4.97;3.27;;;21.70;75.10;;;;;;5094908;28;20452;-66
2023/06/19 03:56:22;;;;;;;4.97;3.37;;;21.70;75.30;;;;;;5094926;28;20453;-67
2023/06/19 03:58:50;;;;;;;2.93;2.73;;;21.70;75.60;;;;;;5094266;28;20819;-66
2023/06/19 04:01:17;;;;;;;4.40;3.00;;;21.70;76.20;;;;;;5097943;28;20483;-67
2023/06/19 04:03:43;;;;;;;5.23;3.90;;;21.70;76.50;;;;;;5096505;28;20992;-67
2023/06/19 04:06:10;;;;;;;3.50;3.20;;;21.70;77.00;;;;;;5094317;28;20439;-67
2023/06/19 04:08:37;;;;;;;3.60;3.23;;;21.70;77.10;;;;;;5094358;28;20819;-67
2023/06/19 04:11:04;;;;;;;3.40;3.10;;;21.60;77.30;;;;;;5094120;28;20447;-68
2023/06/19 04:13:30;;;;;;;3.57;2.80;;;21.60;77.30;;;;;;5093270;28;20999;-67
2023/06/19 04:15:58;;;;;;;3.07;2.77;;;21.60;77.40;;;;;;5096000;28;20448;-67
2023/06/19 04:18:27;;;;;;;3.63;3.33;;;21.50;77.50;;;;;;5095176;28;20866;-68
2023/06/19 04:20:53;;;;;;;3.20;2.90;;;21.60;78.00;;;;;;5094377;28;20501;-67
2023/06/19 04:23:20;;;;;;;5.40;3.27;;;21.60;78.00;;;;;;5094249;28;20470;-67
2023/06/19 04:25:47;;;;;;;4.33;2.80;;;21.60;78.30;;;;;;5093132;28;20967;-68
2023/06/19 04:28:14;;;;;;;13.80;3.07;;;21.60;78.30;;;;;;5094127;28;20456;-67
2023/06/19 04:30:40;;;;;;;4.03;3.20;;;21.60;78.40;;;;;;5094021;28;20447;-68
2023/06/19 04:33:09;;;;;;;3.00;2.70;;;21.70;78.50;;;;;;5093719;28;20991;-68
2023/06/19 04:35:39;;;;;;;4.90;3.43;;;21.70;78.40;;;;;;5093916;28;20452;-67
2023/06/19 04:38:06;;;;;;;2.60;2.40;;;21.70;78.70;;;;;;5093904;28;20440;-67
2023/06/19 04:40:33;;;;;;;3.23;2.70;;;21.60;79.00;;;;;;5093415;28;20959;-67
2023/06/19 04:43:00;;;;;;;4.77;3.10;;;21.60;79.50;;;;;;5093845;28;20490;-67
2023/06/19 04:45:26;;;;;;;4.07;3.27;;;21.60;79.80;;;;;;5093364;28;20842;-67
2023/06/19 04:47:53;;;;;;;3.57;3.00;;;21.70;79.80;;;;;;5093737;28;20455;-67
2023/06/19 04:50:21;;;;;;;3.90;3.30;;;21.80;79.60;;;;;;5093751;28;20444;-67
2023/06/19 04:52:50;;;;;;;3.10;2.90;;;21.80;79.30;;;;;;5094002;28;20555;-67
2023/06/19 04:55:16;;;;;;;5.13;2.70;;;21.90;79.20;;;;;;5094071;28;20444;-67
2023/06/19 04:57:43;;;;;;;4.50;3.30;;;22.00;79.00;;;;;;5093538;28;20454;-68
2023/06/19 05:00:11;;;;;;;5.10;2.80;;;22.10;78.60;;;;;;5093172;28;20505;-67
2023/06/19 05:02:38;;;;;;;6.40;3.07;;;22.20;78.40;;;;;;5093132;28;21027;-67
2023/06/19 05:05:06;;;;;;;3.83;2.87;;;22.30;78.00;;;;;;5093495;28;20486;-67
2023/06/19 05:07:34;;;;;;;4.63;2.90;;;22.30;77.80;;;;;;5093180;28;20790;-67
2023/06/19 05:10:00;;;;;;;4.90;2.90;;;22.30;77.70;;;;;;5093455;28;20447;-67
2023/06/19 05:12:27;;;;;;;3.90;2.90;;;22.40;77.80;;;;;;5093488;28;20459;-67
2023/06/19 05:14:54;;;;;;;5.40;3.33;;;22.40;77.90;;;;;;5093496;28;20447;-67
2023/06/19 05:17:21;;;;;;;6.37;3.00;;;22.40;77.60;;;;;;5093308;28;20444;-67
2023/06/19 05:19:47;;;;;;;4.23;3.10;;;22.50;77.60;;;;;;5093472;28;20432;-67
2023/06/19 05:22:14;;;;;;;4.13;2.93;;;22.50;77.50;;;;;;5093188;28;20533;-67
2023/06/19 05:24:42;;;;;;;6.00;2.57;;;22.60;77.50;;;;;;5095925;28;20448;-67
2023/06/19 05:27:09;;;;;;;3.60;2.47;;;22.50;77.20;;;;;;5097263;28;20452;-67
2023/06/19 05:29:36;;;;;;;2.47;2.27;;;22.50;77.50;;;;;;5097148;28;20486;-67
2023/06/19 05:32:03;;;;;;;4.33;2.80;;;22.50;77.20;;;;;;5097360;28;20468;-67
2023/06/19 05:34:29;;;;;;;2.73;2.40;;;22.50;77.00;;;;;;5097137;28;20455;-67
2023/06/19 05:36:56;;;;;;;3.00;2.00;;;22.50;76.70;;;;;;5097704;28;20450;-67
2023/06/19 05:39:23;;;;;;;3.30;2.33;;;22.40;76.80;;;;;;5101146;28;20536;-68
2023/06/19 05:41:51;;;;;;;2.90;2.70;;;22.40;77.40;;;;;;5100298;28;20532;-67
2023/06/19 05:44:18;;;;;;;2.40;2.20;;;22.40;77.90;;;;;;5099378;28;20444;-67
2023/06/19 05:46:45;;;;;;;2.60;2.40;;;22.40;77.40;;;;;;5098284;28;20452;-67
2023/06/19 05:49:12;;;;;;;4.83;3.23;;;22.50;77.30;;;;;;5098485;28;20443;-67
2023/06/19 05:51:39;;;;;;;7.70;2.40;;;22.60;77.20;;;;;;5097585;28;20522;-67
2023/06/19 05:54:05;;;;;;;2.47;2.23;;;22.70;77.00;;;;;;5097731;28;20447;-66
2023/06/19 05:56:33;;;;;;;3.30;2.20;;;22.80;76.40;;;;;;5103926;28;20443;-67
2023/06/19 05:59:02;;;;;;;2.83;2.20;;;22.90;75.90;;;;;;5117324;28;20500;-67
2023/06/19 06:01:29;;;;;;;2.70;2.37;;;23.00;75.80;;;;;;5117762;28;20481;-67
2023/06/19 06:03:56;;;;;;;4.03;2.40;;;23.20;75.40;;;;;;5117769;28;20450;-67
2023/06/19 06:06:23;;;;;;;3.33;2.70;;;23.40;75.30;;;;;;5117359;28;20449;-68
2023/06/19 06:08:51;;;;;;;3.10;1.90;;;23.50;74.20;;;;;;5117994;28;20450;-68
2023/06/19 06:11:17;;;;;;;3.53;2.43;;;23.60;73.50;;;;;;5117412;28;20443;-67
2023/06/19 06:13:44;;;;;;;2.97;2.10;;;23.70;72.80;;;;;;5116915;28;20487;-67
2023/06/19 06:16:12;;;;;;;3.30;2.10;;;23.80;72.00;;;;;;5119907;28;20939;-66
2023/06/19 06:18:39;;;;;;;3.83;2.60;;;23.90;71.80;;;;;;5118505;28;20463;-66
2023/06/19 06:21:06;;;;;;;7.90;2.70;;;24.10;71.80;;;;;;5116966;28;20447;-66
2023/06/19 06:23:32;;;;;;;3.20;2.40;;;24.20;71.30;;;;;;5116884;28;20483;-67
2023/06/19 06:26:02;;;;;;;3.50;2.13;;;24.10;70.10;;;;;;5116846;28;20446;-67
2023/06/19 06:28:29;;;;;;;4.60;2.37;;;24.00;71.00;;;;;;5116833;28;20548;-68
2023/06/19 06:30:56;;;;;;;5.03;2.47;;;23.90;70.70;;;;;;5116563;28;20435;-67
2023/06/19 06:33:24;;;;;;;2.83;2.60;;;23.90;70.20;;;;;;5117065;28;20496;-67
2023/06/19 06:35:51;;;;;;;2.57;2.00;;;23.90;70.70;;;;;;5115980;28;20458;-68
2023/06/19 06:38:18;;;;;;;3.30;2.37;;;23.90;71.00;;;;;;5116512;28;20484;-67
2023/06/19 06:40:45;;;;;;;4.00;2.90;;;24.10;70.20;;;;;;5117108;28;20450;-67
2023/06/19 06:43:11;;;;;;;3.30;3.00;;;24.00;70.20;;;;;;5116491;28;20504;-66
2023/06/19 06:45:38;;;;;;;4.27;2.70;;;24.10;70.70;;;;;;5116341;28;20496;-66
2023/06/19 06:48:05;;;;;;;6.10;3.03;;;24.10;69.50;;;;;;5117054;28;20446;-66
2023/06/19 06:50:33;;;;;;;2.67;2.47;;;24.10;70.80;;;;;;5116952;28;20450;-66
2023/06/19 06:53:01;;;;;;;5.90;3.10;;;24.10;69.50;;;;;;5117353;28;20459;-67
2023/06/19 06:55:28;;;;;;;3.53;2.50;;;24.20;71.20;;;;;;5117378;28;20442;-66
2023/06/19 06:57:54;;;;;;;2.67;2.30;;;24.30;70.90;;;;;;5118170;28;20554;-67
2023/06/19 07:00:21;;;;;;;2.77;2.53;;;24.30;69.40;;;;;;5117367;28;20480;-67
2023/06/19 07:02:50;;;;;;;4.83;2.50;;;24.30;70.50;;;;;;5117445;28;20474;-66
2023/06/19 07:05:17;;;;;;;2.20;1.97;;;24.20;71.50;;;;;;5116471;28;20904;-66
2023/06/19 07:07:45;;;;;;;3.20;2.90;;;23.90;73.40;;;;;;5118849;28;20443;-67
2023/06/19 07:10:12;;;;;;;3.37;2.97;;;23.80;75.50;;;;;;5117382;27;20488;-66
2023/06/19 07:12:46;;;;;;;7.10;3.53;;;23.70;76.90;;;;;;5116584;28;20467;-66
2023/06/19 07:15:12;;;;;;;4.93;2.60;;;23.60;78.40;;;;;;5117714;27;20423;-67
2023/06/19 07:17:39;;;;;;;5.53;2.90;;;23.40;79.00;;;;;;5118297;28;20450;-67
2023/06/19 07:20:07;;;;;;;3.70;2.60;;;23.40;79.70;;;;;;5117766;28;20435;-66
2023/06/19 07:22:34;;;;;;;7.03;3.10;;;23.40;80.00;;;;;;5116997;28;20525;-67
2023/06/19 07:25:03;;;;;;;3.03;2.73;;;23.40;79.70;;;;;;5116439;28;20521;-67
2023/06/19 07:27:30;;;;;;;3.43;2.93;;;23.40;79.80;;;;;;5115109;28;20486;-67
2023/06/19 07:29:57;;;;;;;6.27;3.50;;;23.50;79.90;;;;;;5115206;28;20948;-67
2023/06/19 07:32:24;;;;;;;6.80;3.03;;;23.50;79.10;;;;;;5115321;28;20458;-67
2023/06/19 07:34:50;;;;;;;5.50;2.90;;;23.60;77.70;;;;;;5115235;28;20462;-67
2023/06/19 07:37:18;;;;;;;4.17;3.33;;;23.80;77.80;;;;;;5115288;28;20447;-66
2023/06/19 07:39:45;;;;;;;4.83;3.13;;;23.80;77.20;;;;;;5115054;28;20473;-66
2023/06/19 07:42:14;;;;;;;2.90;2.70;;;23.70;75.60;;;;;;5114545;27;20514;-66
2023/06/19 07:44:41;;;;;;;3.10;2.90;;;23.70;75.40;;;;;;5114914;28;20450;-67
2023/06/19 07:47:09;;;;;;;3.63;2.30;;;23.70;75.50;;;;;;5114645;28;20447;-67
2023/06/19 07:49:36;;;;;;;3.67;3.07;;;23.90;76.20;;;;;;5114831;28;20447;-66
2023/06/19 07:52:04;;;;;;;2.93;2.67;;;24.00;74.90;;;;;;5114803;28;20478;-67
2023/06/19 07:54:30;;;;;;;4.63;3.40;;;24.10;73.60;;;;;;5119780;28;20450;-67
2023/06/19 07:56:57;;;;;;;4.63;3.17;;;24.20;73.00;;;;;;5119836;28;20466;-67
2023/06/19 07:59:26;;;;;;;4.03;2.87;;;24.30;73.10;;;;;;5119468;28;20842;-67
2023/06/19 08:01:53;;;;;;;3.80;3.13;;;24.50;74.10;;;;;;5117692;28;20462;-67
2023/06/19 08:04:19;;;;;;;4.30;3.13;;;24.80;71.40;;;;;;5117264;28;20470;-67
2023/06/19 08:06:46;;;;;;;3.73;3.43;;;25.00;70.40;;;;;;5116406;28;20439;-67
2023/06/19 08:09:13;;;;;;;3.00;2.80;;;25.10;68.40;;;;;;5116002;28;20446;-67
2023/06/19 08:11:40;;;;;;;6.50;3.70;;;25.20;67.20;;;;;;5115919;28;20447;-67
2023/06/19 08:14:07;;;;;;;6.43;3.17;;;25.50;67.10;;;;;;5115509;28;20439;-68
2023/06/19 08:16:35;;;;;;;3.87;3.10;;;25.60;65.10;;;;;;5114796;28;20492;-68
2023/06/19 08:19:02;;;;;;;4.47;3.00;;;25.80;65.10;;;;;;5114845;28;20481;-68
2023/06/19 08:21:28;;;;;;;3.80;2.80;;;26.00;64.20;;;;;;5114879;28;20446;-68
2023/06/19 08:23:55;;;;;;;6.63;2.70;;;26.30;62.00;;;;;;5114745;28;20501;-68
2023/06/19 08:26:22;;;;;;;4.00;3.17;;;26.50;61.90;;;;;;5113371;28;20474;-67
2023/06/19 08:28:49;;;;;;;4.93;3.03;;;26.70;59.80;;;;;;5114457;28;20443;-67
2023/06/19 08:31:16;;;;;;;4.90;2.60;;;26.70;58.70;;;;;;5116556;28;20442;-67
2023/06/19 08:33:44;;;;;;;3.80;2.80;;;26.70;58.80;;;;;;5118407;28;20466;-67
2023/06/19 08:36:11;;;;;;;5.30;2.70;;;26.90;59.00;;;;;;5114506;28;20553;-67
2023/06/19 08:38:38;;;;;;;4.30;3.90;;;27.00;57.70;;;;;;5114908;28;20447;-67
2023/06/19 08:41:05;;;;;;;3.30;3.03;;;26.90;56.70;;;;;;5114815;28;20465;-66
2023/06/19 08:43:32;;;;;;;4.23;3.27;;;26.80;57.60;;;;;;5113896;28;20986;-67
2023/06/19 08:46:08;;;;;;;4.30;3.50;;;26.80;58.60;;;;;;5114239;28;20454;-67
2023/06/19 08:48:36;;;;;;;4.53;3.33;;;26.90;59.20;;;;;;5114195;28;20462;-67
2023/06/19 08:51:05;;;;;;;5.07;2.93;;;26.80;58.00;;;;;;5114107;28;20500;-67
2023/06/19 08:53:34;;;;;;;7.43;3.60;;;26.80;58.50;;;;;;5114105;28;20494;-66
2023/06/19 08:56:01;;;;;;;4.50;3.57;;;27.00;58.60;;;;;;5114194;28;20450;-67
2023/06/19 08:58:28;;;;;;;4.47;3.00;;;27.20;58.20;;;;;;5114417;28;20442;-67
2023/06/19 09:00:55;;;;;;;5.83;4.03;;;27.40;58.30;;;;;;5118438;28;20454;-66
2023/06/19 09:03:22;;;;;;;3.80;3.50;;;27.60;56.50;;;;;;5118366;28;20483;-67
2023/06/19 09:05:50;;;;;;;4.03;3.63;;;27.80;56.20;;;;;;5117819;28;20939;-67
2023/06/19 09:08:19;;;;;;;3.93;3.53;;;28.00;56.60;;;;;;5117993;28;20446;-67
2023/06/19 09:10:56;;;;;;;5.53;3.50;;;28.20;54.20;;;;;;5118313;27;20480;-66
2023/06/19 09:13:23;;;;;;;5.60;3.53;;;28.50;54.70;;;;;;5116932;28;20458;-67
2023/06/19 09:15:58;;;;;;;6.43;3.70;;;28.70;53.60;;;;;;5117661;28;20496;-67
2023/06/19 09:18:25;;;;;;;7.63;3.57;;;28.70;51.20;;;;;;5118326;28;20454;-67
2023/06/19 09:20:54;;;;;;;3.37;3.10;;;28.70;51.20;;;;;;5117986;28;20451;-67
2023/06/19 09:23:22;;;;;;;6.33;3.50;;;28.70;50.70;;;;;;5117377;28;20474;-67
2023/06/19 09:25:51;;;;;;;3.77;3.47;;;29.00;50.40;;;;;;5117959;28;20515;-67
2023/06/19 09:28:19;;;;;;;4.20;3.80;;;29.20;48.30;;;;;;5118244;28;20516;-67
2023/06/19 09:30:53;;;;;;;4.50;3.70;;;29.10;47.60;;;;;;5117646;28;20469;-67
2023/06/19 09:33:21;;;;;;;11.20;4.13;;;29.10;49.10;;;;;;5117449;28;20464;-67
2023/06/19 09:35:49;;;;;;;5.13;3.90;;;29.20;48.30;;;;;;5117494;28;20446;-67
2023/06/19 09:38:18;;;;;;;3.40;3.10;;;29.40;49.50;;;;;;5117347;28;20446;-67
2023/06/19 09:40:48;;;;;;;4.07;3.67;;;29.50;48.10;;;;;;5117512;28;20497;-67
2023/06/19 09:43:19;;;;;;;4.70;3.30;;;29.60;49.00;;;;;;5117406;28;20494;-67
2023/06/19 09:45:49;;;;;;;7.87;3.80;;;29.70;47.80;;;;;;5117346;28;20426;-67
2023/06/19 09:48:20;;;;;;;4.80;4.40;;;29.90;46.60;;;;;;5117547;28;20427;-67
2023/06/19 09:50:51;;;;;;;4.13;3.23;;;29.90;45.70;;;;;;5117520;28;20919;-66
2023/06/19 09:53:20;;;;;;;4.43;4.03;;;29.90;45.00;;;;;;5117263;28;20835;-66
2023/06/19 09:55:50;;;;;;;5.57;4.20;;;30.00;44.90;;;;;;5117249;28;20467;-67
2023/06/19 09:58:17;;;;;;;5.00;3.37;;;30.30;44.90;;;;;;5116779;28;20533;-67
2023/06/19 10:00:45;;;;;;;4.03;3.47;;;30.40;44.70;;;;;;5118353;28;20814;-67
2023/06/19 10:03:13;;;;;;;12.10;5.07;;;30.60;44.20;;;;;;5120730;28;20478;-66
2023/06/19 10:05:40;;;;;;;7.30;3.83;;;30.70;43.30;;;;;;5118421;28;20474;-67
2023/06/19 10:08:08;;;;;;;5.10;3.40;;;30.80;42.20;;;;;;5117050;28;20438;-67
2023/06/19 10:10:36;;;;;;;4.43;3.50;;;31.00;42.10;;;;;;5118648;28;20468;-67
2023/06/19 10:13:15;;;;;;;6.93;4.00;;;31.00;42.40;;;;;;5123861;28;20464;-67
2023/06/19 10:15:43;;;;;;;7.40;4.70;;;31.20;40.80;;;;;;5121500;28;20434;-67
2023/06/19 10:18:16;;;;;;;6.23;3.90;;;31.50;42.00;;;;;;5119984;28;20454;-68
2023/06/19 10:20:44;;;;;;;4.33;3.93;;;31.90;41.10;;;;;;5118191;28;20470;-67
2023/06/19 10:23:16;;;;;;;4.73;3.77;;;32.00;38.90;;;;;;5117272;28;20486;-67
2023/06/19 10:25:44;;;;;;;5.57;4.00;;;32.30;38.50;;;;;;5117873;28;20777;-68
2023/06/19 10:28:19;;;;;;;5.50;4.40;;;32.60;37.50;;;;;;5116924;28;20434;-68
2023/06/19 10:30:52;;;;;;;7.13;4.20;;;33.00;37.30;;;;;;5117488;28;20446;-68
2023/06/19 10:33:19;;;;;;;5.43;4.93;;;33.10;36.40;;;;;;5117009;28;20455;-68
2023/06/19 10:35:45;;;;;;;5.00;4.50;;;33.40;35.00;;;;;;5116505;28;20810;-68
2023/06/19 10:38:16;;;;;;;5.10;3.87;;;33.50;33.90;;;;;;5117170;28;20449;-68
2023/06/19 10:40:43;;;;;;;7.33;4.70;;;33.80;34.10;;;;;;5117217;28;20510;-68
2023/06/19 10:43:09;;;;;;;7.73;4.70;;;34.00;33.00;;;;;;5116047;28;20990;-68
2023/06/19 10:45:38;;;;;;;5.17;4.70;;;34.10;32.40;;;;;;5116288;28;20515;-68
2023/06/19 10:48:05;;;;;;;7.37;4.50;;;34.10;33.10;;;;;;5117192;28;20442;-68
2023/06/19 10:50:36;;;;;;;4.87;4.30;;;34.10;32.10;;;;;;5119747;28;20943;-67
2023/06/19 10:53:03;;;;;;;6.63;4.70;;;34.10;32.70;;;;;;5116044;28;20990;-67
2023/06/19 10:55:30;;;;;;;10.73;4.60;;;34.60;32.20;;;;;;5115921;28;20992;-68
2023/06/19 10:57:57;;;;;;;4.83;4.37;;;35.20;32.40;;;;;;5116531;28;20450;-68
2023/06/19 11:00:25;;;;;;;5.57;4.50;;;35.50;29.80;;;;;;5116177;28;20438;-68
2023/06/19 11:02:53;;;;;;;7.33;4.10;;;35.30;29.60;;;;;;5115892;28;20862;-67
2023/06/19 11:05:23;;;;;;;16.03;5.83;;;35.40;30.00;;;;;;5115767;28;20477;-68
2023/06/19 11:07:53;;;;;;;6.87;4.20;;;35.30;30.40;;;;;;5115850;28;20450;-68
2023/06/19 11:10:22;;;;;;;5.10;4.70;;;35.30;30.30;;;;;;5115431;28;20818;-68
2023/06/19 11:12:49;;;;;;;5.27;4.77;;;35.80;30.40;;;;;;5115738;28;20488;-68
2023/06/19 11:15:16;;;;;;;5.00;4.50;;;36.20;29.10;;;;;;5115674;28;20445;-68
2023/06/19 11:17:43;;;;;;;6.07;4.47;;;36.60;29.00;;;;;;5115623;28;20298;-68
2023/06/19 11:20:13;;;;;;;5.40;4.33;;;36.50;27.40;;;;;;5115901;28;20429;-67
2023/06/19 11:22:41;;;;;;;4.30;3.90;;;36.80;28.30;;;;;;5115435;28;20224;-68
2023/06/19 11:25:10;;;;;;;5.73;4.87;;;37.40;28.10;;;;;;5116008;28;20217;-68
2023/06/19 11:27:39;;;;;;;5.20;4.80;;;37.90;26.40;;;;;;5115946;28;20229;-68
2023/06/19 11:30:07;;;;;;;4.82;4.43;;;38.30;25.80;;;;;;5115244;28;20196;-68
2023/06/19 11:32:40;;;;;;;5.38;4.95;;;38.70;25.00;;;;;;5115183;28;20705;-68
2023/06/19 11:35:09;;;;;;;5.80;5.18;;;39.10;25.10;;;;;;5115679;28;20181;-68
2023/06/19 11:37:37;;;;;;;7.15;4.55;;;39.20;24.50;;;;;;5116322;28;20211;-68
2023/06/19 11:40:10;;;;;;;6.07;4.20;;;39.60;24.90;;;;;;5116293;28;20200;-68
2023/06/19 11:42:46;;;;;;;5.57;4.32;;;40.10;24.10;;;;;;5116509;28;20235;-68
2023/06/19 11:45:12;;;;;;;5.18;4.68;;;40.60;22.90;;;;;;5115620;28;20212;-68
2023/06/19 11:47:40;;;;;;;4.82;4.47;;;40.80;22.50;;;;;;5115314;28;20207;-68
2023/06/19 11:50:08;;;;;;;5.47;3.72;;;41.10;22.70;;;;;;5115433;28;20571;-68
2023/06/19 11:52:37;;;;;;;4.65;4.25;;;41.40;22.40;;;;;;5114886;28;20262;-68
2023/06/19 11:55:04;;;;;;;6.60;4.60;;;41.30;23.00;;;;;;5115296;28;20227;-68
2023/06/19 11:57:32;;;;;;;4.43;4.03;;;41.70;22.00;;;;;;5115203;28;20254;-68
2023/06/19 11:59:59;;;;;;;6.07;4.75;;;42.20;21.70;;;;;;5115241;28;20208;-68
2023/06/19 12:02:26;;;;;;;4.68;4.28;;;42.60;21.20;;;;;;5115267;28;20227;-68
2023/06/19 12:04:53;;;;;;;6.47;4.32;;;43.10;20.00;;;;;;5114755;28;20244;-68
2023/06/19 12:07:20;;;;;;;4.15;3.38;;;43.30;20.30;;;;;;5114753;28;20196;-69
2023/06/19 12:09:48;;;;;;;4.40;4.00;;;43.80;20.10;;;;;;5114524;28;20231;-68
2023/06/19 12:12:15;;;;;;;4.03;3.72;;;43.90;19.00;;;;;;5114701;28;20220;-69
2023/06/19 12:14:42;;;;;;;5.18;4.20;;;43.70;19.50;;;;;;5114608;28;20212;-69
2023/06/19 12:17:09;;;;;;;4.78;4.30;;;43.40;20.50;;;;;;5114705;28;20197;-69
2023/06/19 12:19:35;;;;;;;4.78;3.72;;;43.10;20.90;;;;;;5114341;28;20220;-69
2023/06/19 12:22:02;;;;;;;4.93;4.47;;;42.70;21.20;;;;;;5114430;28;20220;-68
2023/06/19 12:24:29;;;;;;;4.60;4.20;;;42.30;21.80;;;;;;5114330;28;20758;-68
2023/06/19 12:26:57;;;;;;;5.03;4.63;;;41.90;21.30;;;;;;5116478;28;20207;-69
2023/06/19 12:29:26;;;;;;;5.78;4.22;;;41.30;22.00;;;;;;5124454;28;20197;-69
2023/06/19 12:31:52;;;;;;;5.38;4.88;;;40.70;22.80;;;;;;5127246;28;20221;-68
2023/06/19 12:34:20;;;;;;;4.90;4.20;;;40.30;23.20;;;;;;5117688;28;20668;-68
2023/06/19 12:36:47;;;;;;;5.30;4.80;;;39.80;23.20;;;;;;5115675;28;20207;-68
2023/06/19 12:39:16;;;;;;;5.40;4.90;;;39.40;24.40;;;;;;5114739;28;20204;-68
2023/06/19 12:41:43;;;;;;;7.00;4.80;;;39.00;24.40;;;;;;5114720;28;20204;-68
2023/06/19 12:44:11;;;;;;;4.82;4.43;;;38.70;24.90;;;;;;5114655;28;20217;-68
2023/06/19 12:46:39;;;;;;;5.85;5.00;;;38.60;24.60;;;;;;5114665;28;20204;-69